Elizabeth, IL (61028)

5:29 AM CDT on April 27, 2017 (GMT -0500)
Guilford Township | | Change Station
Active Advisory: Frost Advisory

Elev 1102 ft 42.40 °N, 90.27 °W | Updated 22 seconds ago

Rain
Rain
39.2 °F
Feels Like 31 °F
N
14.0
Wind Variable Wind from North
Gusts 16.0 mph

Today
High -- | Low -- °F
--% Chance of Precip.
Yesterday
High -- | Low -- °F
Precip. -- in
Pressure 29.43 in
Visibility 7.0 miles
Clouds Scattered Clouds 1000 ft
Mostly Cloudy 3700 ft
Overcast 5000 ft
Windchill 31 °F
Dew Point 39 °F
Humidity 99%
Rainfall 0.66 in
Snow Depth Not available.
6:01 AM 7:56 PM
New Moon, 1% visible
METAR KSFY 271015Z AUTO 29014G19KT 7SM RA SCT010 BKN037 OVC050 05/04 A2943 RMK AO2 T00520041
Pressure 29.43 in
Visibility 7.0 miles
Clouds Scattered Clouds 1000 ft
Mostly Cloudy 3700 ft
Overcast 5000 ft
Windchill 31 °F
Dew Point 39 °F
Humidity 99%
Rainfall 0.66 in
Snow Depth Not available.
6:01 AM 7:56 PM
New Moon, 1% visible
METAR KSFY 271015Z AUTO 29014G19KT 7SM RA SCT010 BKN037 OVC050 05/04 A2943 RMK AO2 T00520041

Get Your Daily Forecast Email!

Thanks for signing up!

Be on the lookout for a verification email in your inbox.

You'll start receiving severe weather alerts in your inbox..

×

10-Day Weather Forecast

Almanac

Astronomy

Apr. 27, 2017 Rise Set
Actual Time
Civil Twilight
Nautical Twilight
Astronomical Twilight
Moon
Length of Visible Light
Length of Day
Tomorrow will be .
, % of the Moon is Illuminated

Today's Extremes

State Highs State Lows

Community

WunderPhotos

WunderBlog® & News

Nearby

Air Quality

  Air Quality AQ Index Pollutant
Not available.

Snow Depth

Station Depth Elevation

Earthquake Activity

City Distance Mag. Time & Date
Minimum magnitude displayed is 2.5.

Coastal Water Temperatures

Place Temperature

Stations

Nearby Weather Stations

Station Location Temp. Windchill Dew Point Humidity Wind Precip. Elev Updated Type
                   

Watches & Warnings

Frost Advisory
Issued: 3:22 AM CDT Apr. 27, 2017 – National Weather Service

... Frost advisory in effect from 1 am to 8 am CDT Friday...

The National Weather Service in the Quad Cities has issued a
frost advisory... which is in effect from 1 am to 8 am CDT Friday.

* Temperatures... in the middle 30s.

* Timing... 1 am CDT Friday through 8 am CDT Friday.

* Impacts... the frost could damage plants across the advisory
area. Be sure to move vunerable plants inside or cover them
overnight.

Precautionary/preparedness actions...

A frost advisory means that frost is likely. Cover or move
sensitive plants indoors.



Gibbs